VOZ429 YPAD-YSSY
Flight info
| Callsign | VOZ429 |
|---|---|
| Flight time | N/A |
| Altitude | 35000 |
| Route | AVDEN H247 CULIN Y59 RIVET |
| Aircraft | B738/M-SAE3DGHIM1RWZ/LB1 |
Departure
| Time | 2025-09-10 07:29 |
|---|---|
| Airport | Adelaide International Airport (YPAD) |
Arrival
| Time | N/A |
|---|---|
| Airport | Sydney Kingsford Smith International Airport (YSSY) |
| Time | Latitude | Longitude | Altitude | Speed | Heading |
|---|---|---|---|---|---|
| 2025-09-10 06:31 | -34.93806 | 138.54031 | 29 ft | 0 kts | 320° |
| 2025-09-10 07:21 | -34.93819 | 138.54044 | 32 ft | 3 kts | 320° |
| 2025-09-10 07:22 | -34.93848 | 138.54073 | 26 ft | 2 kts | 320° |
| 2025-09-10 07:22 | -34.93860 | 138.54089 | 30 ft | 3 kts | 289° |
| 2025-09-10 07:23 | -34.93851 | 138.54125 | 28 ft | 1 kts | 230° |
| 2025-09-10 07:23 | -34.93850 | 138.54127 | 28 ft | 0 kts | 230° |
| 2025-09-10 07:26 | -34.93902 | 138.54148 | 30 ft | 8 kts | 140° |
| 2025-09-10 07:26 | -34.93946 | 138.54193 | 30 ft | 8 kts | 140° |
| 2025-09-10 07:27 | -34.94031 | 138.54279 | 27 ft | 8 kts | 140° |
| 2025-09-10 07:27 | -34.94115 | 138.54251 | 27 ft | 7 kts | 230° |
| 2025-09-10 07:28 | -34.94569 | 138.53588 | 23 ft | 117 kts | 230° |
| 2025-09-10 07:28 | -34.95879 | 138.51681 | 1115 ft | 151 kts | 229° |
| 2025-09-10 07:29 | -34.98242 | 138.48238 | 2510 ft | 213 kts | 227° |
| 2025-09-10 07:29 | -35.00299 | 138.45245 | 3648 ft | 237 kts | 227° |
| 2025-09-10 07:30 | -35.01368 | 138.43689 | 4543 ft | 242 kts | 226° |
| 2025-09-10 07:30 | -35.04357 | 138.42144 | 6360 ft | 245 kts | 178° |
| 2025-09-10 07:31 | -35.07488 | 138.43877 | 7996 ft | 261 kts | 148° |
| 2025-09-10 07:31 | -35.10141 | 138.47000 | 9652 ft | 279 kts | 122° |
| 2025-09-10 07:32 | -35.10640 | 138.51969 | 10634 ft | 326 kts | 90° |
| 2025-09-10 07:32 | -35.10194 | 138.57770 | 11607 ft | 351 kts | 89° |
| 2025-09-10 07:32 | -35.09975 | 138.60750 | 12392 ft | 354 kts | 89° |
| 2025-09-10 07:33 | -35.09380 | 138.69874 | 14647 ft | 364 kts | 89° |
| 2025-09-10 07:34 | -35.08985 | 138.76068 | 16083 ft | 368 kts | 89° |
| 2025-09-10 07:34 | -35.08581 | 138.82358 | 17436 ft | 375 kts | 89° |
| 2025-09-10 07:35 | -35.08166 | 138.88741 | 18756 ft | 380 kts | 89° |
| 2025-09-10 07:35 | -35.07954 | 138.91966 | 19363 ft | 382 kts | 89° |
| 2025-09-10 07:35 | -35.07525 | 138.98469 | 20570 ft | 386 kts | 89° |
| 2025-09-10 07:36 | -35.06865 | 139.08363 | 22317 ft | 393 kts | 88° |
| 2025-09-10 07:37 | -35.06187 | 139.18436 | 23894 ft | 401 kts | 88° |
| 2025-09-10 07:37 | -35.05955 | 139.21842 | 24296 ft | 404 kts | 88° |
| 2025-09-10 07:38 | -35.04751 | 139.39288 | 26198 ft | 421 kts | 88° |
| 2025-09-10 07:41 | -35.02122 | 139.76157 | 29485 ft | 452 kts | 87° |
| 2025-09-10 07:43 | -35.00202 | 140.02121 | 31164 ft | 467 kts | 86° |
| 2025-09-10 07:44 | -34.98085 | 140.29938 | 32968 ft | 474 kts | 85° |
| 2025-09-10 07:47 | -34.97953 | 140.66383 | 34907 ft | 481 kts | 91° |
| 2025-09-10 07:48 | -34.98094 | 140.94911 | 35004 ft | 480 kts | 91° |
| 2025-09-10 07:51 | -34.98191 | 141.31433 | 35003 ft | 479 kts | 90° |
| 2025-09-10 07:52 | -34.98190 | 141.60002 | 34984 ft | 484 kts | 90° |
| 2025-09-10 07:55 | -34.98088 | 141.97061 | 34968 ft | 487 kts | 89° |
| 2025-09-10 07:56 | -34.97932 | 142.25936 | 34953 ft | 486 kts | 89° |
| 2025-09-10 07:59 | -34.97630 | 142.63017 | 34932 ft | 486 kts | 89° |
| 2025-09-10 08:00 | -34.97318 | 142.91817 | 34921 ft | 487 kts | 89° |
| 2025-09-10 08:03 | -34.96825 | 143.29009 | 34898 ft | 489 kts | 88° |
| 2025-09-10 08:05 | -34.96334 | 143.66291 | 34875 ft | 489 kts | 88° |
| 2025-09-10 08:07 | -34.95803 | 143.95260 | 34858 ft | 488 kts | 82° |
| 2025-09-10 08:09 | -34.78322 | 144.23052 | 34849 ft | 470 kts | 35° |
| 2025-09-10 08:11 | -34.60797 | 144.41041 | 34863 ft | 473 kts | 38° |
| 2025-09-10 08:13 | -34.43118 | 144.69529 | 34686 ft | 498 kts | 75° |